sensor_id;sensor_type;location;lat;lon;timestamp;P1;durP1;ratioP1;P2;durP2;ratioP2
8232;SDS011;4157;48.074;9.952;2023-08-01T00:01:38;6.20;;;2.70;;
8232;SDS011;4157;48.074;9.952;2023-08-01T00:04:06;5.07;;;2.60;;
8232;SDS011;4157;48.074;9.952;2023-08-01T00:06:35;6.95;;;2.72;;
8232;SDS011;4157;48.074;9.952;2023-08-01T00:09:03;6.25;;;2.53;;
8232;SDS011;4157;48.074;9.952;2023-08-01T00:11:31;6.22;;;3.08;;
8232;SDS011;4157;48.074;9.952;2023-08-01T00:13:58;6.82;;;2.78;;
8232;SDS011;4157;48.074;9.952;2023-08-01T00:16:27;7.82;;;2.78;;
8232;SDS011;4157;48.074;9.952;2023-08-01T00:18:54;6.40;;;2.85;;
8232;SDS011;4157;48.074;9.952;2023-08-01T00:21:22;6.63;;;3.40;;
8232;SDS011;4157;48.074;9.952;2023-08-01T00:23:51;7.07;;;2.60;;
8232;SDS011;4157;48.074;9.952;2023-08-01T00:26:19;6.95;;;2.90;;
8232;SDS011;4157;48.074;9.952;2023-08-01T00:28:46;7.68;;;3.40;;
8232;SDS011;4157;48.074;9.952;2023-08-01T00:31:14;7.10;;;3.13;;
8232;SDS011;4157;48.074;9.952;2023-08-01T00:33:43;6.45;;;2.80;;
8232;SDS011;4157;48.074;9.952;2023-08-01T00:36:11;6.68;;;2.80;;
8232;SDS011;4157;48.074;9.952;2023-08-01T00:38:39;5.75;;;2.78;;
8232;SDS011;4157;48.074;9.952;2023-08-01T00:41:10;9.70;;;3.22;;
8232;SDS011;4157;48.074;9.952;2023-08-01T00:43:37;7.10;;;3.38;;
8232;SDS011;4157;48.074;9.952;2023-08-01T00:46:05;6.85;;;3.03;;
8232;SDS011;4157;48.074;9.952;2023-08-01T00:48:34;6.57;;;2.95;;
8232;SDS011;4157;48.074;9.952;2023-08-01T00:51:03;7.30;;;3.10;;
8232;SDS011;4157;48.074;9.952;2023-08-01T00:53:31;6.68;;;2.90;;
8232;SDS011;4157;48.074;9.952;2023-08-01T00:55:59;6.63;;;3.03;;
8232;SDS011;4157;48.074;9.952;2023-08-01T00:58:28;6.05;;;3.50;;
8232;SDS011;4157;48.074;9.952;2023-08-01T01:00:55;6.18;;;2.97;;
8232;SDS011;4157;48.074;9.952;2023-08-01T01:03:25;6.55;;;3.00;;
8232;SDS011;4157;48.074;9.952;2023-08-01T01:05:53;7.45;;;3.22;;
8232;SDS011;4157;48.074;9.952;2023-08-01T01:08:22;6.32;;;2.90;;
8232;SDS011;4157;48.074;9.952;2023-08-01T01:10:50;5.85;;;2.70;;
8232;SDS011;4157;48.074;9.952;2023-08-01T01:13:17;7.13;;;2.95;;
8232;SDS011;4157;48.074;9.952;2023-08-01T01:15:46;6.65;;;3.35;;
8232;SDS011;4157;48.074;9.952;2023-08-01T01:18:14;7.22;;;3.13;;
8232;SDS011;4157;48.074;9.952;2023-08-01T01:20:43;6.85;;;3.00;;
8232;SDS011;4157;48.074;9.952;2023-08-01T01:23:11;10.18;;;4.10;;
8232;SDS011;4157;48.074;9.952;2023-08-01T01:25:39;6.97;;;3.28;;
8232;SDS011;4157;48.074;9.952;2023-08-01T01:28:07;6.13;;;3.03;;
8232;SDS011;4157;48.074;9.952;2023-08-01T01:30:34;5.55;;;2.88;;
8232;SDS011;4157;48.074;9.952;2023-08-01T01:33:03;7.05;;;3.10;;
8232;SDS011;4157;48.074;9.952;2023-08-01T01:35:33;7.82;;;3.55;;
8232;SDS011;4157;48.074;9.952;2023-08-01T01:38:02;6.82;;;3.15;;
8232;SDS011;4157;48.074;9.952;2023-08-01T01:40:30;7.50;;;3.35;;
8232;SDS011;4157;48.074;9.952;2023-08-01T01:42:58;7.82;;;3.42;;
8232;SDS011;4157;48.074;9.952;2023-08-01T01:45:26;7.13;;;3.33;;
8232;SDS011;4157;48.074;9.952;2023-08-01T01:47:53;6.57;;;3.40;;
8232;SDS011;4157;48.074;9.952;2023-08-01T01:50:21;7.60;;;3.30;;
8232;SDS011;4157;48.074;9.952;2023-08-01T01:52:49;7.60;;;3.25;;
8232;SDS011;4157;48.074;9.952;2023-08-01T01:55:18;6.53;;;3.33;;
8232;SDS011;4157;48.074;9.952;2023-08-01T01:57:46;7.00;;;3.28;;
8232;SDS011;4157;48.074;9.952;2023-08-01T02:00:13;6.63;;;3.47;;
8232;SDS011;4157;48.074;9.952;2023-08-01T02:02:41;7.78;;;3.45;;
8232;SDS011;4157;48.074;9.952;2023-08-01T02:05:09;7.00;;;3.38;;
8232;SDS011;4157;48.074;9.952;2023-08-01T02:07:36;8.98;;;3.80;;
8232;SDS011;4157;48.074;9.952;2023-08-01T02:10:04;8.23;;;4.18;;
8232;SDS011;4157;48.074;9.952;2023-08-01T02:12:35;6.60;;;3.75;;
8232;SDS011;4157;48.074;9.952;2023-08-01T02:15:05;7.60;;;3.60;;
8232;SDS011;4157;48.074;9.952;2023-08-01T02:17:33;7.93;;;3.47;;
8232;SDS011;4157;48.074;9.952;2023-08-01T02:20:03;7.80;;;4.10;;
8232;SDS011;4157;48.074;9.952;2023-08-01T02:22:32;6.63;;;3.83;;
8232;SDS011;4157;48.074;9.952;2023-08-01T02:25:00;7.43;;;3.80;;
8232;SDS011;4157;48.074;9.952;2023-08-01T02:27:28;6.20;;;3.92;;
8232;SDS011;4157;48.074;9.952;2023-08-01T02:29:57;7.20;;;3.38;;
8232;SDS011;4157;48.074;9.952;2023-08-01T02:32:25;8.00;;;3.50;;
8232;SDS011;4157;48.074;9.952;2023-08-01T02:34:52;5.93;;;3.25;;
8232;SDS011;4157;48.074;9.952;2023-08-01T02:37:20;8.50;;;3.65;;
8232;SDS011;4157;48.074;9.952;2023-08-01T02:39:48;8.13;;;3.83;;
8232;SDS011;4157;48.074;9.952;2023-08-01T02:42:15;6.10;;;3.50;;
8232;SDS011;4157;48.074;9.952;2023-08-01T02:44:43;7.88;;;3.47;;
8232;SDS011;4157;48.074;9.952;2023-08-01T02:47:12;7.10;;;3.72;;
8232;SDS011;4157;48.074;9.952;2023-08-01T02:49:40;8.27;;;4.05;;
8232;SDS011;4157;48.074;9.952;2023-08-01T02:52:07;8.52;;;4.00;;
8232;SDS011;4157;48.074;9.952;2023-08-01T02:54:36;8.65;;;3.88;;
8232;SDS011;4157;48.074;9.952;2023-08-01T02:57:03;8.05;;;4.03;;
8232;SDS011;4157;48.074;9.952;2023-08-01T02:59:31;8.05;;;3.95;;
8232;SDS011;4157;48.074;9.952;2023-08-01T03:01:59;7.32;;;4.22;;
8232;SDS011;4157;48.074;9.952;2023-08-01T03:04:28;9.88;;;4.13;;
8232;SDS011;4157;48.074;9.952;2023-08-01T03:06:56;8.65;;;4.00;;
8232;SDS011;4157;48.074;9.952;2023-08-01T03:09:24;9.98;;;4.32;;
8232;SDS011;4157;48.074;9.952;2023-08-01T03:11:51;9.10;;;4.43;;
8232;SDS011;4157;48.074;9.952;2023-08-01T03:14:19;9.13;;;4.15;;
8232;SDS011;4157;48.074;9.952;2023-08-01T03:16:46;7.25;;;4.25;;
8232;SDS011;4157;48.074;9.952;2023-08-01T03:19:15;7.38;;;4.38;;
8232;SDS011;4157;48.074;9.952;2023-08-01T03:21:45;8.40;;;4.15;;
8232;SDS011;4157;48.074;9.952;2023-08-01T03:24:12;7.85;;;4.22;;
8232;SDS011;4157;48.074;9.952;2023-08-01T03:26:40;6.57;;;4.00;;
8232;SDS011;4157;48.074;9.952;2023-08-01T03:29:08;7.38;;;4.10;;
8232;SDS011;4157;48.074;9.952;2023-08-01T03:31:35;8.57;;;3.92;;
8232;SDS011;4157;48.074;9.952;2023-08-01T03:34:03;8.13;;;4.88;;
8232;SDS011;4157;48.074;9.952;2023-08-01T03:36:35;9.75;;;3.72;;
8232;SDS011;4157;48.074;9.952;2023-08-01T03:39:04;7.18;;;3.90;;
8232;SDS011;4157;48.074;9.952;2023-08-01T03:41:32;8.10;;;3.97;;
8232;SDS011;4157;48.074;9.952;2023-08-01T03:44:00;6.93;;;4.03;;
8232;SDS011;4157;48.074;9.952;2023-08-01T03:46:27;7.05;;;4.30;;
8232;SDS011;4157;48.074;9.952;2023-08-01T03:48:55;9.55;;;4.20;;
8232;SDS011;4157;48.074;9.952;2023-08-01T03:51:23;7.20;;;4.28;;
8232;SDS011;4157;48.074;9.952;2023-08-01T03:53:51;9.18;;;4.43;;
8232;SDS011;4157;48.074;9.952;2023-08-01T03:56:20;6.10;;;3.95;;
8232;SDS011;4157;48.074;9.952;2023-08-01T03:58:48;7.78;;;4.05;;
8232;SDS011;4157;48.074;9.952;2023-08-01T04:01:15;7.72;;;3.95;;
8232;SDS011;4157;48.074;9.952;2023-08-01T04:03:43;8.25;;;4.38;;
8232;SDS011;4157;48.074;9.952;2023-08-01T04:06:11;7.45;;;4.25;;
8232;SDS011;4157;48.074;9.952;2023-08-01T04:08:40;9.85;;;4.68;;
8232;SDS011;4157;48.074;9.952;2023-08-01T04:11:08;6.47;;;4.40;;
8232;SDS011;4157;48.074;9.952;2023-08-01T04:13:38;9.90;;;4.38;;
8232;SDS011;4157;48.074;9.952;2023-08-01T04:16:05;10.18;;;4.97;;
8232;SDS011;4157;48.074;9.952;2023-08-01T04:18:33;9.82;;;4.75;;
8232;SDS011;4157;48.074;9.952;2023-08-01T04:21:01;9.75;;;4.97;;
8232;SDS011;4157;48.074;9.952;2023-08-01T04:23:29;7.25;;;4.25;;
8232;SDS011;4157;48.074;9.952;2023-08-01T04:25:57;8.07;;;4.10;;
8232;SDS011;4157;48.074;9.952;2023-08-01T04:28:25;8.48;;;4.40;;
8232;SDS011;4157;48.074;9.952;2023-08-01T04:30:54;10.23;;;4.25;;
8232;SDS011;4157;48.074;9.952;2023-08-01T04:33:21;8.27;;;4.38;;
8232;SDS011;4157;48.074;9.952;2023-08-01T04:35:49;8.25;;;3.90;;
8232;SDS011;4157;48.074;9.952;2023-08-01T04:38:16;8.18;;;3.88;;
8232;SDS011;4157;48.074;9.952;2023-08-01T04:40:44;8.27;;;4.32;;
8232;SDS011;4157;48.074;9.952;2023-08-01T04:43:12;6.72;;;4.20;;
8232;SDS011;4157;48.074;9.952;2023-08-01T04:45:39;8.27;;;4.47;;
8232;SDS011;4157;48.074;9.952;2023-08-01T04:48:08;7.72;;;4.20;;
8232;SDS011;4157;48.074;9.952;2023-08-01T04:50:36;8.57;;;3.90;;
8232;SDS011;4157;48.074;9.952;2023-08-01T04:53:04;6.75;;;3.90;;
8232;SDS011;4157;48.074;9.952;2023-08-01T04:55:32;7.32;;;4.35;;
8232;SDS011;4157;48.074;9.952;2023-08-01T04:57:59;7.05;;;4.30;;
8232;SDS011;4157;48.074;9.952;2023-08-01T05:00:27;6.82;;;3.50;;
8232;SDS011;4157;48.074;9.952;2023-08-01T05:02:54;8.27;;;4.43;;
8232;SDS011;4157;48.074;9.952;2023-08-01T05:05:23;9.55;;;4.65;;
8232;SDS011;4157;48.074;9.952;2023-08-01T05:07:51;8.10;;;4.53;;
8232;SDS011;4157;48.074;9.952;2023-08-01T05:10:19;7.20;;;3.72;;
8232;SDS011;4157;48.074;9.952;2023-08-01T05:12:46;8.23;;;4.32;;
8232;SDS011;4157;48.074;9.952;2023-08-01T05:15:14;8.93;;;4.35;;
8232;SDS011;4157;48.074;9.952;2023-08-01T05:17:42;8.68;;;4.38;;
8232;SDS011;4157;48.074;9.952;2023-08-01T05:20:10;9.65;;;4.72;;
8232;SDS011;4157;48.074;9.952;2023-08-01T05:22:39;8.02;;;4.93;;
8232;SDS011;4157;48.074;9.952;2023-08-01T05:25:07;8.38;;;4.20;;
8232;SDS011;4157;48.074;9.952;2023-08-01T05:27:35;7.72;;;4.30;;
8232;SDS011;4157;48.074;9.952;2023-08-01T05:30:02;9.82;;;4.22;;
8232;SDS011;4157;48.074;9.952;2023-08-01T05:32:30;9.00;;;4.30;;
8232;SDS011;4157;48.074;9.952;2023-08-01T05:34:58;8.13;;;4.15;;
8232;SDS011;4157;48.074;9.952;2023-08-01T05:37:26;10.02;;;3.95;;
8232;SDS011;4157;48.074;9.952;2023-08-01T05:39:55;7.88;;;3.80;;
8232;SDS011;4157;48.074;9.952;2023-08-01T05:42:22;7.07;;;4.00;;
8232;SDS011;4157;48.074;9.952;2023-08-01T05:44:50;6.93;;;3.83;;
8232;SDS011;4157;48.074;9.952;2023-08-01T05:47:17;8.60;;;3.53;;
8232;SDS011;4157;48.074;9.952;2023-08-01T05:49:45;7.97;;;3.85;;
8232;SDS011;4157;48.074;9.952;2023-08-01T05:52:13;5.85;;;3.58;;
8232;SDS011;4157;48.074;9.952;2023-08-01T05:54:41;7.75;;;4.28;;
8232;SDS011;4157;48.074;9.952;2023-08-01T05:57:10;8.60;;;3.53;;
8232;SDS011;4157;48.074;9.952;2023-08-01T05:59:37;7.78;;;3.92;;
8232;SDS011;4157;48.074;9.952;2023-08-01T06:02:05;8.45;;;4.00;;
8232;SDS011;4157;48.074;9.952;2023-08-01T06:04:33;10.95;;;3.78;;
8232;SDS011;4157;48.074;9.952;2023-08-01T06:07:00;7.68;;;3.80;;
8232;SDS011;4157;48.074;9.952;2023-08-01T06:09:28;8.30;;;3.85;;
8232;SDS011;4157;48.074;9.952;2023-08-01T06:11:56;6.13;;;3.42;;
8232;SDS011;4157;48.074;9.952;2023-08-01T06:14:25;8.20;;;3.70;;
8232;SDS011;4157;48.074;9.952;2023-08-01T06:16:53;7.60;;;3.88;;
8232;SDS011;4157;48.074;9.952;2023-08-01T06:19:20;6.75;;;3.60;;
8232;SDS011;4157;48.074;9.952;2023-08-01T06:21:48;6.57;;;3.80;;
8232;SDS011;4157;48.074;9.952;2023-08-01T06:24:16;7.18;;;3.42;;
8232;SDS011;4157;48.074;9.952;2023-08-01T06:26:43;6.20;;;3.10;;
8232;SDS011;4157;48.074;9.952;2023-08-01T06:29:11;6.63;;;3.50;;
8232;SDS011;4157;48.074;9.952;2023-08-01T06:31:40;7.10;;;3.53;;
8232;SDS011;4157;48.074;9.952;2023-08-01T06:34:08;7.75;;;3.70;;
8232;SDS011;4157;48.074;9.952;2023-08-01T06:36:35;7.47;;;3.63;;
8232;SDS011;4157;48.074;9.952;2023-08-01T06:39:03;10.15;;;3.65;;
8232;SDS011;4157;48.074;9.952;2023-08-01T06:41:31;6.55;;;3.60;;
8232;SDS011;4157;48.074;9.952;2023-08-01T06:43:59;8.77;;;3.40;;
8232;SDS011;4157;48.074;9.952;2023-08-01T06:46:26;7.55;;;3.55;;
8232;SDS011;4157;48.074;9.952;2023-08-01T06:48:55;8.35;;;3.60;;
8232;SDS011;4157;48.074;9.952;2023-08-01T06:51:23;6.72;;;3.25;;
8232;SDS011;4157;48.074;9.952;2023-08-01T06:53:51;6.72;;;3.33;;
8232;SDS011;4157;48.074;9.952;2023-08-01T06:56:18;7.15;;;3.72;;
8232;SDS011;4157;48.074;9.952;2023-08-01T06:58:46;7.82;;;2.78;;
8232;SDS011;4157;48.074;9.952;2023-08-01T07:01:14;7.10;;;3.60;;
8232;SDS011;4157;48.074;9.952;2023-08-01T07:03:41;8.15;;;3.38;;
8232;SDS011;4157;48.074;9.952;2023-08-01T07:06:10;7.30;;;3.25;;
8232;SDS011;4157;48.074;9.952;2023-08-01T07:08:38;7.95;;;3.13;;
8232;SDS011;4157;48.074;9.952;2023-08-01T07:11:06;6.47;;;3.03;;
8232;SDS011;4157;48.074;9.952;2023-08-01T07:13:33;6.55;;;3.15;;
8232;SDS011;4157;48.074;9.952;2023-08-01T07:16:01;5.88;;;3.00;;
8232;SDS011;4157;48.074;9.952;2023-08-01T07:18:29;4.97;;;2.65;;
8232;SDS011;4157;48.074;9.952;2023-08-01T07:21:00;5.43;;;2.90;;
8232;SDS011;4157;48.074;9.952;2023-08-01T07:23:29;6.43;;;3.08;;
8232;SDS011;4157;48.074;9.952;2023-08-01T07:25:56;7.65;;;3.25;;
8232;SDS011;4157;48.074;9.952;2023-08-01T07:28:24;6.32;;;3.08;;
8232;SDS011;4157;48.074;9.952;2023-08-01T07:30:57;6.85;;;3.05;;
8232;SDS011;4157;48.074;9.952;2023-08-01T07:33:26;6.78;;;3.00;;
8232;SDS011;4157;48.074;9.952;2023-08-01T07:35:53;7.65;;;3.00;;
8232;SDS011;4157;48.074;9.952;2023-08-01T07:38:21;8.10;;;3.45;;
8232;SDS011;4157;48.074;9.952;2023-08-01T07:40:50;7.57;;;3.50;;
8232;SDS011;4157;48.074;9.952;2023-08-01T07:43:18;7.70;;;3.42;;
8232;SDS011;4157;48.074;9.952;2023-08-01T07:45:46;7.22;;;3.38;;
8232;SDS011;4157;48.074;9.952;2023-08-01T07:48:15;6.38;;;3.78;;
8232;SDS011;4157;48.074;9.952;2023-08-01T07:50:43;6.18;;;3.25;;
8232;SDS011;4157;48.074;9.952;2023-08-01T07:53:11;6.35;;;3.20;;
8232;SDS011;4157;48.074;9.952;2023-08-01T07:55:38;6.78;;;3.20;;
8232;SDS011;4157;48.074;9.952;2023-08-01T07:58:08;7.68;;;3.20;;
8232;SDS011;4157;48.074;9.952;2023-08-01T08:00:36;7.25;;;3.22;;
8232;SDS011;4157;48.074;9.952;2023-08-01T08:03:04;8.60;;;3.80;;
8232;SDS011;4157;48.074;9.952;2023-08-01T08:05:33;6.68;;;3.28;;
8232;SDS011;4157;48.074;9.952;2023-08-01T08:08:04;6.93;;;3.53;;
8232;SDS011;4157;48.074;9.952;2023-08-01T08:10:31;6.93;;;3.35;;
8232;SDS011;4157;48.074;9.952;2023-08-01T08:12:59;8.93;;;3.70;;
8232;SDS011;4157;48.074;9.952;2023-08-01T08:15:28;6.43;;;3.45;;
8232;SDS011;4157;48.074;9.952;2023-08-01T08:17:59;6.32;;;3.65;;
8232;SDS011;4157;48.074;9.952;2023-08-01T08:20:29;7.85;;;3.80;;
8232;SDS011;4157;48.074;9.952;2023-08-01T08:22:57;7.47;;;3.83;;
8232;SDS011;4157;48.074;9.952;2023-08-01T08:25:25;7.63;;;3.50;;
8232;SDS011;4157;48.074;9.952;2023-08-01T08:27:52;7.60;;;3.78;;
8232;SDS011;4157;48.074;9.952;2023-08-01T08:30:20;7.07;;;4.00;;
8232;SDS011;4157;48.074;9.952;2023-08-01T08:32:49;8.50;;;3.88;;
8232;SDS011;4157;48.074;9.952;2023-08-01T08:35:17;7.07;;;3.97;;
8232;SDS011;4157;48.074;9.952;2023-08-01T08:37:45;9.25;;;4.18;;
8232;SDS011;4157;48.074;9.952;2023-08-01T08:40:12;7.53;;;4.68;;
8232;SDS011;4157;48.074;9.952;2023-08-01T08:42:40;8.45;;;3.92;;
8232;SDS011;4157;48.074;9.952;2023-08-01T08:45:08;7.25;;;3.90;;
8232;SDS011;4157;48.074;9.952;2023-08-01T08:47:36;10.48;;;4.70;;
8232;SDS011;4157;48.074;9.952;2023-08-01T08:50:07;9.60;;;3.80;;
8232;SDS011;4157;48.074;9.952;2023-08-01T08:52:35;6.78;;;3.20;;
8232;SDS011;4157;48.074;9.952;2023-08-01T08:55:03;10.10;;;4.38;;
8232;SDS011;4157;48.074;9.952;2023-08-01T08:57:31;7.32;;;4.03;;
8232;SDS011;4157;48.074;9.952;2023-08-01T09:00:00;8.32;;;4.03;;
8232;SDS011;4157;48.074;9.952;2023-08-01T09:02:32;7.50;;;4.32;;
8232;SDS011;4157;48.074;9.952;2023-08-01T09:04:59;7.78;;;4.10;;
8232;SDS011;4157;48.074;9.952;2023-08-01T09:07:29;9.43;;;4.45;;
8232;SDS011;4157;48.074;9.952;2023-08-01T09:09:57;7.53;;;3.72;;
8232;SDS011;4157;48.074;9.952;2023-08-01T09:12:25;8.48;;;4.20;;
8232;SDS011;4157;48.074;9.952;2023-08-01T09:14:53;8.95;;;4.63;;
8232;SDS011;4157;48.074;9.952;2023-08-01T09:17:23;8.13;;;4.32;;
8232;SDS011;4157;48.074;9.952;2023-08-01T09:19:54;8.93;;;4.50;;
8232;SDS011;4157;48.074;9.952;2023-08-01T09:22:23;8.27;;;4.20;;
8232;SDS011;4157;48.074;9.952;2023-08-01T09:24:52;8.05;;;4.53;;
8232;SDS011;4157;48.074;9.952;2023-08-01T09:27:20;8.50;;;4.55;;
8232;SDS011;4157;48.074;9.952;2023-08-01T09:29:49;9.85;;;4.72;;
8232;SDS011;4157;48.074;9.952;2023-08-01T09:32:16;8.43;;;4.00;;
8232;SDS011;4157;48.074;9.952;2023-08-01T09:34:44;7.28;;;3.80;;
8232;SDS011;4157;48.074;9.952;2023-08-01T09:37:12;10.00;;;3.63;;
8232;SDS011;4157;48.074;9.952;2023-08-01T09:39:40;7.10;;;3.80;;
8232;SDS011;4157;48.074;9.952;2023-08-01T09:42:09;7.57;;;3.42;;
8232;SDS011;4157;48.074;9.952;2023-08-01T09:44:37;7.15;;;3.72;;
8232;SDS011;4157;48.074;9.952;2023-08-01T09:47:05;8.32;;;3.67;;
8232;SDS011;4157;48.074;9.952;2023-08-01T09:49:33;6.35;;;3.03;;
8232;SDS011;4157;48.074;9.952;2023-08-01T09:52:02;6.40;;;3.60;;
8232;SDS011;4157;48.074;9.952;2023-08-01T09:54:30;6.45;;;3.38;;
8232;SDS011;4157;48.074;9.952;2023-08-01T09:56:57;5.80;;;3.55;;
8232;SDS011;4157;48.074;9.952;2023-08-01T09:59:26;7.05;;;3.20;;
8232;SDS011;4157;48.074;9.952;2023-08-01T10:01:55;5.40;;;3.20;;
8232;SDS011;4157;48.074;9.952;2023-08-01T10:04:24;7.72;;;3.63;;
8232;SDS011;4157;48.074;9.952;2023-08-01T10:06:54;6.22;;;3.22;;
8232;SDS011;4157;48.074;9.952;2023-08-01T10:09:22;6.68;;;2.97;;
8232;SDS011;4157;48.074;9.952;2023-08-01T10:11:50;5.80;;;2.78;;
8232;SDS011;4157;48.074;9.952;2023-08-01T10:14:19;6.80;;;3.15;;
8232;SDS011;4157;48.074;9.952;2023-08-01T10:16:48;5.50;;;2.83;;
8232;SDS011;4157;48.074;9.952;2023-08-01T10:19:17;5.00;;;2.83;;
8232;SDS011;4157;48.074;9.952;2023-08-01T10:21:45;5.45;;;2.78;;
8232;SDS011;4157;48.074;9.952;2023-08-01T10:24:14;5.63;;;3.15;;
8232;SDS011;4157;48.074;9.952;2023-08-01T10:26:44;6.78;;;3.40;;
8232;SDS011;4157;48.074;9.952;2023-08-01T10:29:12;5.63;;;3.22;;
8232;SDS011;4157;48.074;9.952;2023-08-01T10:31:51;5.70;;;3.13;;
8232;SDS011;4157;48.074;9.952;2023-08-01T10:34:19;6.68;;;3.22;;
8232;SDS011;4157;48.074;9.952;2023-08-01T10:36:54;9.50;;;3.83;;
8232;SDS011;4157;48.074;9.952;2023-08-01T10:39:22;7.85;;;3.97;;
8232;SDS011;4157;48.074;9.952;2023-08-01T10:41:56;9.07;;;3.78;;
8232;SDS011;4157;48.074;9.952;2023-08-01T10:44:24;6.90;;;3.58;;
8232;SDS011;4157;48.074;9.952;2023-08-01T10:46:54;6.22;;;3.50;;
8232;SDS011;4157;48.074;9.952;2023-08-01T10:49:32;6.60;;;3.67;;
8232;SDS011;4157;48.074;9.952;2023-08-01T10:52:00;5.13;;;3.05;;
8232;SDS011;4157;48.074;9.952;2023-08-01T10:54:28;5.80;;;3.08;;
8232;SDS011;4157;48.074;9.952;2023-08-01T10:56:57;8.02;;;3.83;;
8232;SDS011;4157;48.074;9.952;2023-08-01T10:59:25;5.47;;;3.03;;
8232;SDS011;4157;48.074;9.952;2023-08-01T11:01:58;7.70;;;3.65;;
8232;SDS011;4157;48.074;9.952;2023-08-01T11:04:27;6.03;;;3.38;;
8232;SDS011;4157;48.074;9.952;2023-08-01T11:06:55;8.23;;;3.50;;
8232;SDS011;4157;48.074;9.952;2023-08-01T11:09:23;6.78;;;3.88;;
8232;SDS011;4157;48.074;9.952;2023-08-01T11:11:52;5.85;;;3.22;;
8232;SDS011;4157;48.074;9.952;2023-08-01T11:14:20;6.90;;;3.60;;
8232;SDS011;4157;48.074;9.952;2023-08-01T11:16:49;6.07;;;3.40;;
8232;SDS011;4157;48.074;9.952;2023-08-01T11:19:18;6.55;;;3.70;;
8232;SDS011;4157;48.074;9.952;2023-08-01T11:21:46;6.65;;;3.63;;
8232;SDS011;4157;48.074;9.952;2023-08-01T11:24:14;7.65;;;3.70;;
8232;SDS011;4157;48.074;9.952;2023-08-01T11:26:42;7.22;;;3.85;;
8232;SDS011;4157;48.074;9.952;2023-08-01T11:29:10;8.50;;;3.78;;
8232;SDS011;4157;48.074;9.952;2023-08-01T11:31:38;7.05;;;3.60;;
8232;SDS011;4157;48.074;9.952;2023-08-01T11:34:07;7.65;;;3.78;;
8232;SDS011;4157;48.074;9.952;2023-08-01T11:36:36;6.45;;;3.50;;
8232;SDS011;4157;48.074;9.952;2023-08-01T11:39:04;6.70;;;4.40;;
8232;SDS011;4157;48.074;9.952;2023-08-01T11:41:32;6.85;;;3.75;;
8232;SDS011;4157;48.074;9.952;2023-08-01T11:44:01;7.78;;;3.83;;
8232;SDS011;4157;48.074;9.952;2023-08-01T11:46:30;7.47;;;3.88;;
8232;SDS011;4157;48.074;9.952;2023-08-01T11:48:58;7.40;;;4.15;;
8232;SDS011;4157;48.074;9.952;2023-08-01T11:51:26;5.88;;;3.50;;
8232;SDS011;4157;48.074;9.952;2023-08-01T11:53:59;6.13;;;3.40;;
8232;SDS011;4157;48.074;9.952;2023-08-01T11:56:27;6.67;;;3.60;;
8232;SDS011;4157;48.074;9.952;2023-08-01T11:58:55;6.38;;;3.60;;
8232;SDS011;4157;48.074;9.952;2023-08-01T12:01:24;6.55;;;4.18;;
8232;SDS011;4157;48.074;9.952;2023-08-01T12:03:52;8.60;;;4.15;;
8232;SDS011;4157;48.074;9.952;2023-08-01T12:06:20;8.35;;;3.47;;
8232;SDS011;4157;48.074;9.952;2023-08-01T12:08:50;6.75;;;3.55;;
8232;SDS011;4157;48.074;9.952;2023-08-01T12:11:20;6.25;;;3.35;;
8232;SDS011;4157;48.074;9.952;2023-08-01T12:13:48;8.45;;;3.83;;
8232;SDS011;4157;48.074;9.952;2023-08-01T12:16:26;6.82;;;3.80;;
8232;SDS011;4157;48.074;9.952;2023-08-01T12:18:54;7.75;;;3.65;;
8232;SDS011;4157;48.074;9.952;2023-08-01T12:21:22;7.93;;;3.50;;
8232;SDS011;4157;48.074;9.952;2023-08-01T12:23:49;8.02;;;3.15;;
8232;SDS011;4157;48.074;9.952;2023-08-01T12:26:17;5.45;;;2.78;;
8232;SDS011;4157;48.074;9.952;2023-08-01T12:28:46;5.35;;;2.95;;
8232;SDS011;4157;48.074;9.952;2023-08-01T12:31:17;7.43;;;3.35;;
8232;SDS011;4157;48.074;9.952;2023-08-01T12:33:45;7.07;;;3.33;;
8232;SDS011;4157;48.074;9.952;2023-08-01T12:36:13;7.03;;;3.47;;
8232;SDS011;4157;48.074;9.952;2023-08-01T12:38:40;6.10;;;2.80;;
8232;SDS011;4157;48.074;9.952;2023-08-01T12:41:08;6.03;;;2.83;;
8232;SDS011;4157;48.074;9.952;2023-08-01T12:43:36;4.65;;;2.60;;
8232;SDS011;4157;48.074;9.952;2023-08-01T12:46:05;5.78;;;2.80;;
8232;SDS011;4157;48.074;9.952;2023-08-01T12:48:33;5.35;;;2.38;;
8232;SDS011;4157;48.074;9.952;2023-08-01T12:51:00;6.25;;;2.47;;
8232;SDS011;4157;48.074;9.952;2023-08-01T12:53:29;4.65;;;2.33;;
8232;SDS011;4157;48.074;9.952;2023-08-01T12:56:03;4.82;;;2.45;;
8232;SDS011;4157;48.074;9.952;2023-08-01T12:58:31;6.65;;;2.30;;
8232;SDS011;4157;48.074;9.952;2023-08-01T13:00:58;4.30;;;2.20;;
8232;SDS011;4157;48.074;9.952;2023-08-01T13:03:27;9.15;;;3.40;;
8232;SDS011;4157;48.074;9.952;2023-08-01T13:05:55;4.47;;;2.03;;
8232;SDS011;4157;48.074;9.952;2023-08-01T13:08:23;5.13;;;2.28;;
8232;SDS011;4157;48.074;9.952;2023-08-01T13:10:51;4.70;;;2.55;;
8232;SDS011;4157;48.074;9.952;2023-08-01T13:13:19;4.80;;;2.28;;
8232;SDS011;4157;48.074;9.952;2023-08-01T13:15:47;4.53;;;2.30;;
8232;SDS011;4157;48.074;9.952;2023-08-01T13:18:14;8.95;;;3.00;;
8232;SDS011;4157;48.074;9.952;2023-08-01T13:20:44;5.35;;;2.17;;
8232;SDS011;4157;48.074;9.952;2023-08-01T13:23:12;5.82;;;2.67;;
8232;SDS011;4157;48.074;9.952;2023-08-01T13:25:40;6.25;;;2.72;;
8232;SDS011;4157;48.074;9.952;2023-08-01T13:28:07;7.00;;;2.20;;
8232;SDS011;4157;48.074;9.952;2023-08-01T13:30:35;4.45;;;1.67;;
8232;SDS011;4157;48.074;9.952;2023-08-01T13:33:03;4.60;;;1.58;;
8232;SDS011;4157;48.074;9.952;2023-08-01T13:35:30;5.35;;;1.48;;
8232;SDS011;4157;48.074;9.952;2023-08-01T13:37:59;5.13;;;1.52;;
8232;SDS011;4157;48.074;9.952;2023-08-01T13:40:28;3.22;;;1.15;;
8232;SDS011;4157;48.074;9.952;2023-08-01T13:42:56;2.72;;;1.00;;
8232;SDS011;4157;48.074;9.952;2023-08-01T13:45:24;3.90;;;0.85;;
8232;SDS011;4157;48.074;9.952;2023-08-01T13:47:52;2.92;;;1.00;;
8232;SDS011;4157;48.074;9.952;2023-08-01T13:50:19;4.72;;;1.02;;
8232;SDS011;4157;48.074;9.952;2023-08-01T13:52:47;2.55;;;0.60;;
8232;SDS011;4157;48.074;9.952;2023-08-01T13:55:16;3.30;;;0.90;;
8232;SDS011;4157;48.074;9.952;2023-08-01T13:57:44;3.03;;;0.90;;
8232;SDS011;4157;48.074;9.952;2023-08-01T14:00:12;3.08;;;0.73;;
8232;SDS011;4157;48.074;9.952;2023-08-01T14:02:43;2.63;;;0.70;;
8232;SDS011;4157;48.074;9.952;2023-08-01T14:05:10;3.30;;;1.10;;
8232;SDS011;4157;48.074;9.952;2023-08-01T14:07:38;5.10;;;0.90;;
8232;SDS011;4157;48.074;9.952;2023-08-01T14:10:06;3.40;;;1.10;;
8232;SDS011;4157;48.074;9.952;2023-08-01T14:12:36;4.15;;;1.27;;
8232;SDS011;4157;48.074;9.952;2023-08-01T14:15:04;2.47;;;0.90;;
8232;SDS011;4157;48.074;9.952;2023-08-01T14:17:32;1.95;;;0.80;;
8232;SDS011;4157;48.074;9.952;2023-08-01T14:20:00;1.88;;;0.80;;
8232;SDS011;4157;48.074;9.952;2023-08-01T14:22:29;1.98;;;0.90;;
8232;SDS011;4157;48.074;9.952;2023-08-01T14:24:57;3.28;;;0.80;;
8232;SDS011;4157;48.074;9.952;2023-08-01T14:27:25;2.13;;;0.85;;
8232;SDS011;4157;48.074;9.952;2023-08-01T14:29:54;2.80;;;1.00;;
8232;SDS011;4157;48.074;9.952;2023-08-01T14:32:21;2.00;;;0.70;;
8232;SDS011;4157;48.074;9.952;2023-08-01T14:34:49;1.58;;;0.90;;
8232;SDS011;4157;48.074;9.952;2023-08-01T14:37:17;1.63;;;0.68;;
8232;SDS011;4157;48.074;9.952;2023-08-01T14:39:45;1.73;;;0.70;;
8232;SDS011;4157;48.074;9.952;2023-08-01T14:42:14;2.67;;;1.05;;
8232;SDS011;4157;48.074;9.952;2023-08-01T14:44:41;1.67;;;0.85;;
8232;SDS011;4157;48.074;9.952;2023-08-01T14:47:10;1.50;;;0.70;;
8232;SDS011;4157;48.074;9.952;2023-08-01T14:49:38;1.85;;;0.75;;
8232;SDS011;4157;48.074;9.952;2023-08-01T14:52:06;1.40;;;0.55;;
8232;SDS011;4157;48.074;9.952;2023-08-01T14:54:34;2.40;;;0.60;;
8232;SDS011;4157;48.074;9.952;2023-08-01T14:57:03;3.60;;;0.70;;
8232;SDS011;4157;48.074;9.952;2023-08-01T14:59:31;2.35;;;0.55;;
8232;SDS011;4157;48.074;9.952;2023-08-01T15:01:58;1.75;;;0.50;;
8232;SDS011;4157;48.074;9.952;2023-08-01T15:04:27;1.58;;;0.55;;
8232;SDS011;4157;48.074;9.952;2023-08-01T15:06:55;2.38;;;0.70;;
8232;SDS011;4157;48.074;9.952;2023-08-01T15:09:23;4.82;;;0.80;;
8232;SDS011;4157;48.074;9.952;2023-08-01T15:11:50;3.50;;;0.70;;
8232;SDS011;4157;48.074;9.952;2023-08-01T15:14:18;1.70;;;0.70;;
8232;SDS011;4157;48.074;9.952;2023-08-01T15:16:46;2.08;;;0.88;;
8232;SDS011;4157;48.074;9.952;2023-08-01T15:19:14;1.55;;;0.70;;
8232;SDS011;4157;48.074;9.952;2023-08-01T15:21:44;0.50;;;0.50;;